Time;durP1;ratioP1;P1;durP2;ratioP2;P2;SDS_P1;SDS_P2;PMS_P1;PMS_P2;Temp;Humidity;BMP_temperature;BMP_pressure;BME280_temperature;BME280_humidity;BME280_pressure;Samples;Min_cycle;Max_cycle;Signal;HPM_P1;HPM_P2
2023/04/30 00:00:59;;;;;;;;;;;;;;;15.22;59.99;101169.41;5142563;27;20598;-84
2023/04/30 00:03:24;;;;;;;;;;;;;;;15.23;59.91;101163.28;5133329;27;20385;-84
2023/04/30 00:05:50;;;;;;;;;;;;;;;15.20;59.67;101163.19;5134187;27;19992;-84
2023/04/30 00:08:16;;;;;;;;;;;;;;;15.20;59.78;101161.44;5147796;27;20388;-84
2023/04/30 00:10:41;;;;;;;;;;;;;;;15.21;59.84;101159.69;5094953;28;19916;-84
2023/04/30 00:13:09;;;;;;;;;;;;;;;15.15;59.72;101156.81;5113571;27;20312;-85
2023/04/30 00:15:35;;;;;;;;;;;;;;;15.12;59.71;101157.56;5144673;27;19964;-85
2023/04/30 00:18:00;;;;;;;;;;;;;;;15.09;59.80;101168.00;5104771;27;19927;-84
2023/04/30 00:20:25;;;;;;;;;;;;;;;15.13;59.81;101164.63;5105647;28;20401;-84
2023/04/30 00:22:51;;;;;;;;;;;;;;;15.08;59.85;101171.44;5129756;27;19916;-84
2023/04/30 00:25:17;;;;;;;;;;;;;;;15.06;59.73;101163.47;5143104;27;20372;-84
2023/04/30 00:27:42;;;;;;;;;;;;;;;15.07;60.17;101165.28;5139488;27;19923;-85
2023/04/30 00:30:07;;;;;;;;;;;;;;;15.00;59.73;101160.56;5126064;27;19915;-85
2023/04/30 00:32:33;;;;;;;;;;;;;;;15.07;59.46;101160.03;5133444;27;20402;-85
2023/04/30 00:34:58;;;;;;;;;;;;;;;14.98;59.85;101162.25;5115773;27;19919;-84
2023/04/30 00:37:24;;;;;;;;;;;;;;;15.07;59.43;101160.03;5097620;27;19919;-85
2023/04/30 00:39:49;;;;;;;;;;;;;;;15.00;59.90;101160.56;5133523;27;19955;-83
2023/04/30 00:42:14;;;;;;;;;;;;;;;15.03;59.65;101162.47;5132891;27;19931;-85
2023/04/30 00:44:40;;;;;;;;;;;;;;;14.95;59.71;101159.50;5118905;27;19927;-86
2023/04/30 00:47:07;;;;;;;;;;;;;;;14.95;59.59;101153.34;5102022;28;19916;-85
2023/04/30 00:49:33;;;;;;;;;;;;;;;14.95;59.62;101148.97;5129645;28;19931;-84
2023/04/30 00:51:58;;;;;;;;;;;;;;;14.91;59.53;101154.06;5143817;27;19916;-84
2023/04/30 00:54:24;;;;;;;;;;;;;;;14.92;59.58;101148.88;5115288;28;19919;-85
2023/04/30 00:56:49;;;;;;;;;;;;;;;14.89;59.66;101153.97;5095326;28;20510;-85
2023/04/30 00:59:14;;;;;;;;;;;;;;;14.89;59.75;101153.97;5107824;28;20412;-85
2023/04/30 01:01:40;;;;;;;;;;;;;;;14.86;59.55;101154.75;5112666;28;19919;-85
2023/04/30 01:04:06;;;;;;;;;;;;;;;14.87;59.53;101155.66;5094452;28;20381;-85
2023/04/30 01:06:31;;;;;;;;;;;;;;;14.84;59.70;101155.53;5094046;28;19912;-85
2023/04/30 01:08:57;;;;;;;;;;;;;;;14.83;60.19;101151.09;5112221;28;20347;-85
2023/04/30 01:11:36;;;;;;;;;;;;;;;14.84;59.77;101153.78;5113100;27;19916;-85
2023/04/30 01:14:26;;;;;;;;;;;;;;;14.84;59.47;101150.28;5100119;28;19916;-85
2023/04/30 01:16:54;;;;;;;;;;;;;;;14.84;59.55;101145.00;5119498;27;19919;-85
2023/04/30 01:19:27;;;;;;;;;;;;;;;14.85;59.38;101149.41;5099448;28;19916;-85
2023/04/30 01:21:52;;;;;;;;;;;;;;;14.82;59.82;101141.41;5104792;28;20056;-85
2023/04/30 01:24:32;;;;;;;;;;;;;;;14.82;59.55;101149.31;5097876;28;20373;-85
2023/04/30 01:27:16;;;;;;;;;;;;;;;14.83;59.84;101143.19;5113109;27;19927;-85
2023/04/30 01:29:42;;;;;;;;;;;;;;;14.81;59.68;101142.22;5109395;28;19915;-85
2023/04/30 01:32:09;;;;;;;;;;;;;;;14.80;59.61;101143.09;5103634;28;20011;-85
2023/04/30 01:34:34;;;;;;;;;;;;;;;14.81;59.75;101144.84;5097198;28;19938;-85
2023/04/30 01:37:20;;;;;;;;;;;;;;;14.78;60.07;101139.47;5111827;28;19924;-84
2023/04/30 01:39:46;;;;;;;;;;;;;;;14.81;59.86;101139.59;5093428;28;20343;-85
2023/04/30 01:42:21;;;;;;;;;;;;;;;14.83;59.81;101136.19;5111414;28;19920;-85
2023/04/30 01:44:52;;;;;;;;;;;;;;;14.79;59.98;101128.13;5097525;28;19915;-84
2023/04/30 01:47:24;;;;;;;;;;;;;;;14.78;60.05;101123.72;5124910;27;19920;-84
2023/04/30 01:49:50;;;;;;;;;;;;;;;14.76;59.84;101122.75;5113625;28;20289;-85
2023/04/30 01:52:22;;;;;;;;;;;;;;;14.72;60.21;101120.81;5134826;27;19930;-84
2023/04/30 01:54:47;;;;;;;;;;;;;;;14.74;60.02;101121.78;5134454;27;19922;-85
2023/04/30 01:57:15;;;;;;;;;;;;;;;14.73;59.93;101122.59;5134785;27;20312;-84
2023/04/30 01:59:41;;;;;;;;;;;;;;;14.77;59.68;101124.53;5093244;28;19923;-84
2023/04/30 02:02:09;;;;;;;;;;;;;;;14.72;59.79;101132.22;5112591;27;20448;-84
2023/04/30 02:04:35;;;;;;;;;;;;;;;14.72;59.87;101133.97;5134092;27;20301;-85
2023/04/30 02:07:00;;;;;;;;;;;;;;;14.71;59.88;101130.44;5147265;27;20388;-84
2023/04/30 02:09:26;;;;;;;;;;;;;;;14.70;59.76;101128.63;5144005;27;20014;-84
2023/04/30 02:11:51;;;;;;;;;;;;;;;14.69;59.80;101123.28;5115124;28;20001;-84
2023/04/30 02:14:16;;;;;;;;;;;;;;;14.66;59.97;101124.97;5125859;27;20345;-84
2023/04/30 02:16:42;;;;;;;;;;;;;;;14.68;59.73;101127.66;5114146;28;19926;-85
2023/04/30 02:19:07;;;;;;;;;;;;;;;14.66;59.77;101121.44;5125821;27;20375;-85
2023/04/30 02:21:33;;;;;;;;;;;;;;;14.65;59.77;101123.19;5120991;27;20288;-84
2023/04/30 02:23:58;;;;;;;;;;;;;;;14.65;59.68;101120.56;5151349;27;20392;-84
2023/04/30 02:26:25;;;;;;;;;;;;;;;14.64;59.97;101117.84;5127910;28;20372;-84
2023/04/30 02:28:50;;;;;;;;;;;;;;;14.64;59.81;101118.75;5132327;28;19919;-84
2023/04/30 02:31:16;;;;;;;;;;;;;;;14.65;59.53;101114.41;5104585;27;20014;-85
2023/04/30 02:33:41;;;;;;;;;;;;;;;14.62;59.83;101114.25;5100725;28;20402;-85
2023/04/30 02:36:07;;;;;;;;;;;;;;;14.60;59.52;101119.44;5125799;28;20377;-84
2023/04/30 02:38:32;;;;;;;;;;;;;;;14.61;59.82;101123.00;5134803;27;19915;-85
2023/04/30 02:40:57;;;;;;;;;;;;;;;14.65;59.38;101125.81;5127801;27;20443;-84
2023/04/30 02:43:23;;;;;;;;;;;;;;;14.64;59.29;101125.72;5134143;27;20369;-84
2023/04/30 02:45:48;;;;;;;;;;;;;;;14.59;59.41;101127.28;5151338;27;20399;-85
2023/04/30 02:48:14;;;;;;;;;;;;;;;14.57;59.59;101123.69;5128272;27;20369;-84
2023/04/30 02:50:39;;;;;;;;;;;;;;;14.61;59.80;101128.25;5116729;27;19923;-84
2023/04/30 02:53:05;;;;;;;;;;;;;;;14.58;59.45;101126.38;5139767;27;19923;-84
2023/04/30 02:55:31;;;;;;;;;;;;;;;14.58;59.51;101128.09;5123508;27;20508;-84
2023/04/30 02:57:57;;;;;;;;;;;;;;;14.53;59.52;101135.75;5137691;27;19992;-84
2023/04/30 03:00:22;;;;;;;;;;;;;;;14.60;59.19;101132.56;5120003;27;20385;-84
2023/04/30 03:02:47;;;;;;;;;;;;;;;14.54;59.45;101129.69;5145423;27;19940;-84
2023/04/30 03:05:14;;;;;;;;;;;;;;;14.53;59.42;101127.88;5123403;27;20321;-84
2023/04/30 03:07:40;;;;;;;;;;;;;;;14.55;59.53;101138.44;5137840;27;19911;-84
2023/04/30 03:10:06;;;;;;;;;;;;;;;14.52;59.83;101135.66;5134910;27;20034;-84
2023/04/30 03:12:31;;;;;;;;;;;;;;;14.49;59.90;101132.94;5127401;27;19918;-85
2023/04/30 03:14:56;;;;;;;;;;;;;;;14.50;59.57;101119.88;5132909;27;19916;-85
2023/04/30 03:17:23;;;;;;;;;;;;;;;14.50;59.59;101132.06;5134945;27;20365;-85
2023/04/30 03:19:49;;;;;;;;;;;;;;;14.50;59.49;101130.38;5115835;27;19951;-85
2023/04/30 03:22:14;;;;;;;;;;;;;;;14.48;59.48;101132.03;5099495;27;19971;-84
2023/04/30 03:24:40;;;;;;;;;;;;;;;14.48;59.22;101126.78;5116295;27;20419;-85
2023/04/30 03:27:07;;;;;;;;;;;;;;;14.47;59.43;101130.22;5145852;27;19919;-85
2023/04/30 03:29:32;;;;;;;;;;;;;;;14.46;59.74;101133.69;5141535;27;19980;-85
2023/04/30 03:31:57;;;;;;;;;;;;;;;14.45;59.38;101131.88;5143437;27;20368;-84
2023/04/30 03:34:23;;;;;;;;;;;;;;;14.42;59.54;101131.75;5134592;27;20435;-84
2023/04/30 03:36:48;;;;;;;;;;;;;;;14.40;59.47;101123.81;5135288;27;20437;-84
2023/04/30 03:39:14;;;;;;;;;;;;;;;14.44;59.36;101124.84;5115094;27;20436;-85
2023/04/30 03:41:40;;;;;;;;;;;;;;;14.37;59.94;101141.16;5115213;27;19927;-84
2023/04/30 03:44:05;;;;;;;;;;;;;;;14.37;59.81;101146.41;5126551;27;20014;-85
2023/04/30 03:46:31;;;;;;;;;;;;;;;14.35;59.81;101149.00;5115897;27;19916;-84
2023/04/30 03:48:56;;;;;;;;;;;;;;;14.37;59.59;101149.03;5116230;27;20336;-85
2023/04/30 03:51:22;;;;;;;;;;;;;;;14.37;60.00;101149.97;5119217;27;20406;-85
2023/04/30 03:53:47;;;;;;;;;;;;;;;14.36;59.81;101161.28;5144192;27;20515;-85
2023/04/30 03:56:13;;;;;;;;;;;;;;;14.34;59.84;101159.41;5115197;27;20345;-85
2023/04/30 03:58:38;;;;;;;;;;;;;;;14.32;60.12;101156.72;5107302;27;19915;-86
2023/04/30 04:01:03;;;;;;;;;;;;;;;14.31;59.73;101159.25;5106632;27;19920;-85
2023/04/30 04:03:29;;;;;;;;;;;;;;;14.31;59.86;101165.44;5093129;27;19945;-86
2023/04/30 04:05:54;;;;;;;;;;;;;;;14.34;59.79;101164.69;5106248;27;20479;-85
2023/04/30 04:08:20;;;;;;;;;;;;;;;14.34;59.75;101156.78;5115884;27;20437;-86
2023/04/30 04:10:45;;;;;;;;;;;;;;;14.29;60.07;101155.66;5122560;27;20400;-84
2023/04/30 04:13:10;;;;;;;;;;;;;;;14.29;59.82;101158.28;5112199;27;20447;-85
2023/04/30 04:15:36;;;;;;;;;;;;;;;14.30;59.83;101155.75;5123861;27;20277;-85
2023/04/30 04:18:02;;;;;;;;;;;;;;;14.30;59.72;101161.00;5097482;27;19936;-85
2023/04/30 04:20:28;;;;;;;;;;;;;;;14.23;59.91;101159.81;5115965;27;20384;-85
2023/04/30 04:22:54;;;;;;;;;;;;;;;14.26;59.71;101161.69;5108144;27;19931;-85
2023/04/30 04:25:23;;;;;;;;;;;;;;;14.28;59.92;101157.41;5110622;27;19930;-85
2023/04/30 04:27:49;;;;;;;;;;;;;;;14.26;59.87;101156.44;5114821;27;20010;-85
2023/04/30 04:30:15;;;;;;;;;;;;;;;14.23;60.16;101157.19;5130606;27;20424;-85
2023/04/30 04:32:45;;;;;;;;;;;;;;;14.20;60.06;101162.34;5125202;27;19923;-84
2023/04/30 04:35:11;;;;;;;;;;;;;;;14.20;60.22;101164.03;5107955;27;19980;-85
2023/04/30 04:37:36;;;;;;;;;;;;;;;14.19;60.17;101171.03;5110035;27;19920;-84
2023/04/30 04:40:03;;;;;;;;;;;;;;;14.29;59.79;101174.06;5121609;27;19920;-84
2023/04/30 04:42:29;;;;;;;;;;;;;;;14.22;60.05;101176.44;5112884;27;20352;-85
2023/04/30 04:44:55;;;;;;;;;;;;;;;14.21;60.34;101172.00;5089625;28;19994;-85
2023/04/30 04:47:21;;;;;;;;;;;;;;;14.22;60.05;101173.81;5101699;28;20373;-84
2023/04/30 04:49:47;;;;;;;;;;;;;;;14.22;60.29;101173.81;5106862;28;19928;-84
2023/04/30 04:52:12;;;;;;;;;;;;;;;14.20;60.27;101164.97;5106144;28;19920;-84
2023/04/30 04:54:37;;;;;;;;;;;;;;;14.23;60.18;101161.56;5086054;28;20383;-84
2023/04/30 04:57:03;;;;;;;;;;;;;;;14.22;60.06;101172.88;5105948;28;19963;-84
2023/04/30 04:59:28;;;;;;;;;;;;;;;14.20;60.34;101164.03;5108497;27;19919;-84
2023/04/30 05:01:54;;;;;;;;;;;;;;;14.21;60.27;101168.47;5089620;28;19924;-83
2023/04/30 05:04:19;;;;;;;;;;;;;;;14.23;60.07;101162.47;5094748;28;19963;-83
2023/04/30 05:06:45;;;;;;;;;;;;;;;14.21;60.30;101168.47;5083212;28;19970;-83
2023/04/30 05:09:10;;;;;;;;;;;;;;;14.18;60.24;101170.94;5078112;28;20019;-83
2023/04/30 05:11:36;;;;;;;;;;;;;;;14.18;60.30;101169.25;5096743;28;19942;-83
2023/04/30 05:14:02;;;;;;;;;;;;;;;14.21;60.22;101172.00;5083288;28;19963;-83
2023/04/30 05:16:27;;;;;;;;;;;;;;;14.19;60.03;101173.66;5104770;28;20393;-85
2023/04/30 05:18:52;;;;;;;;;;;;;;;14.21;60.19;101173.72;5099668;28;20352;-83
2023/04/30 05:21:18;;;;;;;;;;;;;;;14.17;60.24;101172.69;5106612;28;19930;-83
2023/04/30 05:23:43;;;;;;;;;;;;;;;14.17;60.21;101177.03;5073445;27;19970;-82
2023/04/30 05:26:09;;;;;;;;;;;;;;;14.19;60.20;101180.63;5078550;28;19935;-83
2023/04/30 05:28:34;;;;;;;;;;;;;;;14.22;60.12;101183.38;5088208;28;19946;-83
2023/04/30 05:31:00;;;;;;;;;;;;;;;14.20;60.15;101178.09;5082513;28;19950;-83
2023/04/30 05:33:26;;;;;;;;;;;;;;;14.18;60.18;101181.44;5086629;28;19920;-83
2023/04/30 05:35:51;;;;;;;;;;;;;;;14.22;60.28;101186.94;5091109;28;20381;-83
2023/04/30 05:38:17;;;;;;;;;;;;;;;14.21;60.27;101187.75;5094047;28;19920;-83
2023/04/30 05:40:42;;;;;;;;;;;;;;;14.22;60.07;101186.94;5078297;28;19920;-83
2023/04/30 05:43:09;;;;;;;;;;;;;;;14.17;60.35;101187.53;5097988;28;19920;-82
2023/04/30 05:45:34;;;;;;;;;;;;;;;14.17;60.22;101180.56;5086656;28;19927;-83
2023/04/30 05:48:00;;;;;;;;;;;;;;;14.15;60.17;101182.22;5080227;28;19923;-82
2023/04/30 05:50:26;;;;;;;;;;;;;;;14.17;60.29;101177.94;5102823;28;19943;-81
2023/04/30 05:52:51;;;;;;;;;;;;;;;14.16;60.37;101175.22;5080732;28;20377;-82
2023/04/30 05:55:20;;;;;;;;;;;;;;;14.18;60.28;101179.75;5100640;28;19980;-82
2023/04/30 05:57:46;;;;;;;;;;;;;;;14.16;60.38;101188.34;5081381;28;20371;-82
2023/04/30 06:00:11;;;;;;;;;;;;;;;14.16;60.46;101176.16;5076499;28;20458;-82
2023/04/30 06:02:37;;;;;;;;;;;;;;;14.14;60.51;101185.69;5100289;28;19951;-83
2023/04/30 06:08:23;;;;;;;;;;;;;;;14.23;60.20;101190.47;5093130;28;19923;-84
2023/04/30 06:10:51;;;;;;;;;;;;;;;14.21;60.32;101184.25;5091058;28;20297;-83
2023/04/30 06:13:16;;;;;;;;;;;;;;;14.23;60.18;101180.84;5102010;28;19919;-82
2023/04/30 06:18:46;;;;;;;;;;;;;;;14.19;60.44;101180.63;5094215;28;20131;-83
2023/04/30 06:21:13;;;;;;;;;;;;;;;14.19;60.37;101184.16;5112111;28;19957;-84
2023/04/30 06:23:38;;;;;;;;;;;;;;;14.21;60.26;101178.97;5083471;28;19920;-84
2023/04/30 06:26:03;;;;;;;;;;;;;;;14.22;60.35;101183.38;5095549;28;19920;-84
2023/04/30 06:28:29;;;;;;;;;;;;;;;14.16;60.17;101183.09;5084027;28;19920;-84
2023/04/30 06:30:54;;;;;;;;;;;;;;;13.95;60.44;101172.50;5084869;28;19959;-84
2023/04/30 06:33:21;;;;;;;;;;;;;;;13.90;60.03;101179.28;5093130;28;19924;-83
2023/04/30 06:35:46;;;;;;;;;;;;;;;14.03;59.08;101184.25;5105829;28;19954;-84
2023/04/30 06:38:12;;;;;;;;;;;;;;;14.14;58.07;101177.81;5073733;28;19920;-83
2023/04/30 06:40:45;;;;;;;;;;;;;;;14.39;57.40;101181.53;5081164;28;19924;-82
2023/04/30 06:43:11;;;;;;;;;;;;;;;14.27;57.22;101184.53;5098716;27;19923;-84
2023/04/30 06:46:06;;;;;;;;;;;;;;;14.35;57.08;101177.88;5085164;27;19976;-84
2023/04/30 06:48:32;;;;;;;;;;;;;;;14.54;56.39;101178.69;5113595;27;19919;-85
2023/04/30 06:50:58;;;;;;;;;;;;;;;14.49;56.36;101175.84;5124113;27;19923;-84
2023/04/30 06:53:23;;;;;;;;;;;;;;;14.54;56.08;101184.88;5080359;27;20282;-82
2023/04/30 06:55:49;;;;;;;;;;;;;;;14.56;55.91;101179.69;5124364;27;19998;-83
2023/04/30 06:58:15;;;;;;;;;;;;;;;14.52;55.94;101175.09;5120192;27;20280;-85
2023/04/30 07:00:41;;;;;;;;;;;;;;;14.54;56.01;101186.56;5123018;27;20423;-84
2023/04/30 07:03:06;;;;;;;;;;;;;;;14.51;56.04;101183.81;5119942;27;20059;-84
2023/04/30 07:05:32;;;;;;;;;;;;;;;14.56;55.74;101183.25;5118516;27;19988;-84
2023/04/30 07:07:59;;;;;;;;;;;;;;;14.33;57.60;101192.69;5124939;27;20335;-85
2023/04/30 07:10:25;;;;;;;;;;;;;;;14.10;59.51;101183.75;5109459;27;19976;-85
2023/04/30 07:12:50;;;;;;;;;;;;;;;13.92;61.36;101185.50;5094374;27;19920;-85
2023/04/30 07:15:16;;;;;;;;;;;;;;;13.96;61.48;101188.34;5123242;27;19939;-85
2023/04/30 07:17:41;;;;;;;;;;;;;;;14.29;59.74;101185.50;5086430;27;19919;-85
2023/04/30 07:20:07;;;;;;;;;;;;;;;14.18;58.75;101192.88;5110171;27;20061;-85
2023/04/30 07:22:33;;;;;;;;;;;;;;;14.30;57.80;101189.91;5090304;27;20027;-84
2023/04/30 07:24:59;;;;;;;;;;;;;;;14.37;57.20;101184.13;5104039;27;20424;-84
2023/04/30 07:27:27;;;;;;;;;;;;;;;14.43;57.07;101187.03;5123304;27;19920;-84
2023/04/30 07:29:53;;;;;;;;;;;;;;;14.50;56.44;101182.94;5127766;27;19919;-84
2023/04/30 07:32:19;;;;;;;;;;;;;;;14.48;56.51;101181.97;5112790;27;19919;-84
2023/04/30 07:34:44;;;;;;;;;;;;;;;14.49;56.37;101188.13;5130583;27;20018;-86
2023/04/30 07:37:10;;;;;;;;;;;;;;;14.55;56.01;101191.00;5105042;27;20042;-85
2023/04/30 07:39:36;;;;;;;;;;;;;;;14.60;55.96;101193.03;5121403;27;19919;-85
2023/04/30 07:42:05;;;;;;;;;;;;;;;14.73;55.57;101184.00;5123617;27;19965;-85
2023/04/30 07:44:30;;;;;;;;;;;;;;;14.62;55.65;101182.59;5097601;27;20541;-82
2023/04/30 07:46:55;;;;;;;;;;;;;;;14.55;55.82;101181.44;5104898;27;20694;-85
2023/04/30 07:49:21;;;;;;;;;;;;;;;14.68;55.45;101181.97;5106867;27;20017;-85
2023/04/30 07:51:47;;;;;;;;;;;;;;;14.66;55.30;101174.91;5114145;27;19919;-84
2023/04/30 07:54:15;;;;;;;;;;;;;;;14.72;55.33;101176.03;5107976;27;19919;-85
2023/04/30 07:56:41;;;;;;;;;;;;;;;14.73;55.78;101178.72;5093752;28;19931;-86
2023/04/30 07:59:07;;;;;;;;;;;;;;;14.50;57.96;101179.38;5123691;27;20339;-84
2023/04/30 08:01:32;;;;;;;;;;;;;;;14.42;59.46;101177.31;5122869;27;20317;-84
2023/04/30 08:03:58;;;;;;;;;;;;;;;14.54;59.68;101176.97;5102994;27;20464;-84
2023/04/30 08:06:24;;;;;;;;;;;;;;;14.52;60.03;101178.66;5125218;27;20424;-84
2023/04/30 08:08:49;;;;;;;;;;;;;;;14.65;58.32;101178.38;5099721;27;19922;-84
2023/04/30 08:11:15;;;;;;;;;;;;;;;14.65;57.56;101177.50;5121930;27;19919;-83
2023/04/30 08:13:41;;;;;;;;;;;;;;;14.71;56.60;101168.94;5101596;27;20048;-82
2023/04/30 08:16:06;;;;;;;;;;;;;;;14.71;56.19;101171.56;5132657;27;19919;-85
2023/04/30 08:18:31;;;;;;;;;;;;;;;14.74;55.97;101171.72;5101528;28;19923;-86
2023/04/30 08:20:57;;;;;;;;;;;;;;;14.79;55.67;101171.06;5102964;27;19930;-84
2023/04/30 08:23:22;;;;;;;;;;;;;;;14.80;55.39;101162.38;5104914;27;20385;-85
2023/04/30 08:25:48;;;;;;;;;;;;;;;14.83;55.14;101162.50;5110471;27;20353;-85
2023/04/30 08:28:13;;;;;;;;;;;;;;;14.83;55.21;101157.22;5093121;27;20595;-84
2023/04/30 08:30:39;;;;;;;;;;;;;;;14.83;55.14;101158.97;5122361;27;19919;-85
2023/04/30 08:33:04;;;;;;;;;;;;;;;14.86;55.15;101157.38;5118729;27;19920;-85
2023/04/30 08:35:30;;;;;;;;;;;;;;;14.88;54.83;101157.47;5110502;27;19927;-82
2023/04/30 08:37:55;;;;;;;;;;;;;;;15.07;54.40;101151.25;5117516;27;19946;-82
2023/04/30 08:40:20;;;;;;;;;;;;;;;14.94;54.53;101147.16;5128009;27;19973;-85
2023/04/30 08:42:49;;;;;;;;;;;;;;;15.07;54.24;101145.97;5115419;27;19925;-85
2023/04/30 08:45:15;;;;;;;;;;;;;;;15.14;53.88;101147.13;5100005;27;19920;-85
2023/04/30 08:47:40;;;;;;;;;;;;;;;14.97;55.77;101144.69;5104318;27;19924;-83
2023/04/30 08:50:06;;;;;;;;;;;;;;;14.93;57.43;101137.50;5098363;28;20030;-84
2023/04/30 08:52:32;;;;;;;;;;;;;;;14.95;58.28;101145.47;5107623;27;19923;-84
2023/04/30 08:54:58;;;;;;;;;;;;;;;14.82;59.14;101142.31;5121684;27;19936;-84
2023/04/30 08:57:24;;;;;;;;;;;;;;;14.93;58.34;101140.13;5120047;27;19920;-86
2023/04/30 08:59:49;;;;;;;;;;;;;;;14.99;56.86;101139.50;5127114;27;19923;-85
2023/04/30 09:02:14;;;;;;;;;;;;;;;15.06;56.15;101133.66;5109458;27;19923;-85
2023/04/30 09:04:40;;;;;;;;;;;;;;;15.07;55.68;101132.84;5122478;27;19928;-86
2023/04/30 09:07:05;;;;;;;;;;;;;;;15.15;55.24;101147.16;5097956;28;19927;-83
2023/04/30 09:09:36;;;;;;;;;;;;;;;15.27;54.77;101138.91;5094521;27;20450;-85
2023/04/30 09:12:21;;;;;;;;;;;;;;;15.22;54.72;101136.09;5102145;27;19924;-84
2023/04/30 09:15:05;;;;;;;;;;;;;;;15.42;54.06;101131.63;5116833;27;19919;-84
2023/04/30 09:17:31;;;;;;;;;;;;;;;15.43;53.88;101135.13;5122429;27;19926;-84
2023/04/30 09:20:07;;;;;;;;;;;;;;;15.43;53.83;101137.78;5107114;28;19981;-83
2023/04/30 09:22:33;;;;;;;;;;;;;;;15.46;53.73;101133.53;5100939;27;19926;-81
2023/04/30 09:24:58;;;;;;;;;;;;;;;15.61;53.48;101124.47;5100898;27;19919;-82
2023/04/30 09:27:24;;;;;;;;;;;;;;;15.57;53.49;101117.28;5125379;27;20407;-83
2023/04/30 09:29:49;;;;;;;;;;;;;;;15.56;53.49;101123.38;5106924;28;20392;-82
2023/04/30 09:32:15;;;;;;;;;;;;;;;15.65;53.06;101116.72;5124683;27;20030;-83
2023/04/30 09:34:42;;;;;;;;;;;;;;;15.59;53.17;101113.84;5101902;28;19920;-84
2023/04/30 09:37:07;;;;;;;;;;;;;;;15.46;54.32;101107.22;5122887;27;19926;-84
2023/04/30 09:39:45;;;;;;;;;;;;;;;15.34;56.42;101113.72;5110334;27;19915;-84
2023/04/30 09:42:11;;;;;;;;;;;;;;;15.27;57.70;101105.59;5098210;27;19923;-82
2023/04/30 09:44:37;;;;;;;;;;;;;;;15.32;58.13;101108.38;5124072;27;20014;-83
2023/04/30 09:47:02;;;;;;;;;;;;;;;15.33;58.06;101098.78;5102504;28;19927;-84
2023/04/30 09:49:28;;;;;;;;;;;;;;;15.53;55.90;101100.44;5118736;27;19928;-83
2023/04/30 09:51:57;;;;;;;;;;;;;;;15.47;55.20;101105.47;5096841;28;19919;-83
2023/04/30 09:54:29;;;;;;;;;;;;;;;15.54;54.84;101104.91;5082486;28;19927;-83
2023/04/30 09:56:56;;;;;;;;;;;;;;;15.65;54.08;101108.84;5118403;27;19985;-83
2023/04/30 09:59:25;;;;;;;;;;;;;;;15.70;53.70;101109.00;5117532;27;19919;-82
2023/04/30 10:01:50;;;;;;;;;;;;;;;15.71;53.69;101108.19;5118018;28;19919;-83
2023/04/30 10:04:16;;;;;;;;;;;;;;;15.81;53.32;101099.84;5102421;28;19923;-83
2023/04/30 10:06:42;;;;;;;;;;;;;;;15.72;53.50;101102.09;5105127;28;19920;-83
2023/04/30 10:09:07;;;;;;;;;;;;;;;15.76;53.38;101101.38;5092334;28;19924;-83
2023/04/30 10:11:32;;;;;;;;;;;;;;;15.73;53.27;101106.53;5116309;28;19919;-83
2023/04/30 10:13:58;;;;;;;;;;;;;;;15.75;53.36;101107.50;5113916;28;19920;-83
2023/04/30 10:16:29;;;;;;;;;;;;;;;15.84;52.96;101118.38;5095193;28;20365;-83
2023/04/30 10:18:55;;;;;;;;;;;;;;;15.85;53.12;101121.91;5092514;28;19916;-83
2023/04/30 10:21:21;;;;;;;;;;;;;;;15.94;52.77;101121.34;5109610;28;20388;-83
2023/04/30 10:23:47;;;;;;;;;;;;;;;15.94;52.73;101109.09;5142253;27;19915;-83
2023/04/30 10:26:12;;;;;;;;;;;;;;;15.88;53.06;101107.13;5115890;28;19915;-83
2023/04/30 10:28:39;;;;;;;;;;;;;;;15.72;55.22;101110.00;5140681;27;20312;-83
2023/04/30 10:31:05;;;;;;;;;;;;;;;15.69;56.68;101104.59;5126547;28;20320;-82
2023/04/30 10:33:51;;;;;;;;;;;;;;;15.80;57.29;101108.56;5092517;28;19927;-84
2023/04/30 10:36:32;;;;;;;;;;;;;;;15.62;57.94;101100.84;5107717;27;19919;-83
2023/04/30 10:38:58;;;;;;;;;;;;;;;15.70;56.19;101101.09;5120887;28;19958;-83
2023/04/30 10:41:25;;;;;;;;;;;;;;;15.72;55.14;101102.09;5131236;28;19919;-83
2023/04/30 10:43:50;;;;;;;;;;;;;;;15.87;54.45;101100.06;5112957;28;19919;-83
2023/04/30 10:46:20;;;;;;;;;;;;;;;15.86;54.07;101095.63;5125509;28;19927;-83
2023/04/30 10:48:46;;;;;;;;;;;;;;;15.89;53.74;101092.22;5130469;27;19950;-83
2023/04/30 10:51:12;;;;;;;;;;;;;;;15.90;53.68;101091.38;5144808;27;20541;-84
2023/04/30 10:53:39;;;;;;;;;;;;;;;16.00;53.35;101092.59;5113150;28;19915;-83
2023/04/30 10:56:10;;;;;;;;;;;;;;;16.03;53.30;101098.00;5131231;28;20438;-84
2023/04/30 10:58:39;;;;;;;;;;;;;;;16.03;53.10;101093.63;5142664;27;20017;-83
2023/04/30 11:01:10;;;;;;;;;;;;;;;16.13;53.03;101086.97;5102582;28;19923;-83
2023/04/30 11:03:36;;;;;;;;;;;;;;;16.13;53.16;101093.94;5106807;27;19915;-82
2023/04/30 11:06:12;;;;;;;;;;;;;;;16.15;52.86;101087.00;5135249;27;19919;-84
2023/04/30 11:08:38;;;;;;;;;;;;;;;16.14;52.80;101088.75;5139737;27;20392;-83
2023/04/30 11:11:04;;;;;;;;;;;;;;;16.19;52.48;101086.28;5124643;27;19915;-83
2023/04/30 11:13:59;;;;;;;;;;;;;;;16.18;52.67;101087.13;5134655;27;19964;-83
2023/04/30 11:16:32;;;;;;;;;;;;;;;16.16;53.03;101087.06;5089673;27;20388;-83
2023/04/30 11:19:10;;;;;;;;;;;;;;;16.01;55.45;101094.41;5145481;27;19911;-83
2023/04/30 11:21:54;;;;;;;;;;;;;;;15.80;57.07;101092.75;5135413;27;19927;-84
2023/04/30 11:24:20;;;;;;;;;;;;;;;15.99;57.43;101096.09;5148032;27;19955;-83
2023/04/30 11:27:07;;;;;;;;;;;;;;;15.88;57.38;101091.31;5134367;27;19962;-83
2023/04/30 11:29:33;;;;;;;;;;;;;;;16.09;55.27;101092.97;5129794;27;19941;-83
2023/04/30 11:32:02;;;;;;;;;;;;;;;16.18;54.25;101092.41;5103321;28;20369;-84
2023/04/30 11:34:28;;;;;;;;;;;;;;;16.24;53.63;101087.34;5114832;27;19915;-83
2023/04/30 11:36:54;;;;;;;;;;;;;;;16.28;53.33;101087.50;5129707;27;19919;-84
2023/04/30 11:39:19;;;;;;;;;;;;;;;16.19;53.13;101078.38;5109787;27;19922;-83
2023/04/30 11:41:45;;;;;;;;;;;;;;;16.31;52.84;101077.91;5096405;27;19970;-83
2023/04/30 11:44:25;;;;;;;;;;;;;;;16.29;52.78;101081.38;5120435;27;19926;-83
2023/04/30 11:46:50;;;;;;;;;;;;;;;16.43;52.26;101075.72;5109445;27;20529;-83
2023/04/30 11:49:16;;;;;;;;;;;;;;;16.33;52.58;101074.50;5103688;27;19923;-83
2023/04/30 11:51:41;;;;;;;;;;;;;;;16.37;52.33;101067.59;5112630;27;19920;-83
2023/04/30 11:54:07;;;;;;;;;;;;;;;16.34;52.38;101070.09;5131393;27;19922;-83
2023/04/30 11:56:32;;;;;;;;;;;;;;;16.41;52.15;101075.66;5101074;27;19983;-83
2023/04/30 11:58:58;;;;;;;;;;;;;;;16.34;52.38;101076.31;5111934;27;19997;-83
2023/04/30 12:01:27;;;;;;;;;;;;;;;16.47;52.00;101088.19;5124450;27;20460;-83
2023/04/30 12:03:54;;;;;;;;;;;;;;;16.40;52.13;101081.78;5110990;27;19916;-82
2023/04/30 12:06:22;;;;;;;;;;;;;;;16.38;52.69;101088.75;5128465;27;20380;-83
2023/04/30 12:08:51;;;;;;;;;;;;;;;16.21;54.84;101077.59;5131169;27;19919;-83
2023/04/30 12:11:24;;;;;;;;;;;;;;;16.19;56.17;101078.38;5095544;27;20022;-83
2023/04/30 12:13:50;;;;;;;;;;;;;;;16.02;57.53;101075.13;5102325;27;19944;-83
2023/04/30 12:16:16;;;;;;;;;;;;;;;16.02;57.80;101073.41;5122257;27;19916;-83
2023/04/30 12:18:41;;;;;;;;;;;;;;;16.18;55.75;101073.94;5099381;27;20665;-83
2023/04/30 12:21:08;;;;;;;;;;;;;;;16.25;54.44;101079.47;5124890;27;19926;-83
2023/04/30 12:23:33;;;;;;;;;;;;;;;16.34;53.84;101076.31;5097592;27;19968;-84
2023/04/30 12:25:59;;;;;;;;;;;;;;;16.38;53.43;101083.47;5125449;27;19992;-83
2023/04/30 12:28:24;;;;;;;;;;;;;;;16.40;53.24;101084.44;5109355;27;19926;-83
2023/04/30 12:30:52;;;;;;;;;;;;;;;16.50;52.69;101080.34;5109159;27;20374;-84
2023/04/30 12:33:17;;;;;;;;;;;;;;;16.44;52.79;101086.31;5113818;27;19919;-84
2023/04/30 12:35:43;;;;;;;;;;;;;;;16.46;52.63;101079.34;5112373;27;20293;-84
2023/04/30 12:38:09;;;;;;;;;;;;;;;16.61;52.11;101078.09;5118129;27;19953;-84
2023/04/30 12:40:34;;;;;;;;;;;;;;;16.44;52.49;101075.75;5100977;27;20372;-83